createdAt,value
2019-03-28T00:03:39.234Z,19.30
2019-03-28T00:06:19.811Z,19.60
2019-03-28T00:09:00.796Z,17.57
2019-03-28T00:11:41.488Z,24.10
2019-03-28T00:14:21.854Z,18.13
2019-03-28T00:17:02.493Z,20.30
2019-03-28T00:19:43.107Z,21.63
2019-03-28T00:22:43.219Z,19.87
2019-03-28T00:25:24.816Z,19.63
2019-03-28T00:28:05.130Z,19.53
2019-03-28T00:30:45.905Z,17.40
2019-03-28T00:33:14.475Z,18.87
2019-03-28T00:36:02.394Z,16.83
2019-03-28T00:38:43.393Z,19.60
2019-03-28T00:41:24.063Z,19.47
2019-03-28T00:44:04.678Z,18.57
2019-03-28T00:46:45.154Z,19.00
2019-03-28T00:49:25.954Z,16.03
2019-03-28T00:51:54.509Z,21.87
2019-03-28T00:54:42.442Z,17.07
2019-03-28T00:57:10.990Z,19.93
2019-03-28T00:59:58.901Z,19.83
2019-03-28T01:02:39.842Z,20.27
2019-03-28T01:05:20.866Z,24.03
2019-03-28T01:08:01.522Z,21.90
2019-03-28T01:10:42.476Z,20.37
2019-03-28T01:13:22.891Z,22.60
2019-03-28T01:16:03.743Z,20.43
2019-03-28T01:18:45.374Z,20.37
2019-03-28T01:21:26.421Z,21.33
2019-03-28T01:24:07.195Z,23.33
2019-03-28T01:26:57.307Z,25.17
2019-03-28T01:29:30.851Z,24.67
2019-03-28T01:32:11.479Z,23.13
2019-03-28T01:34:52.282Z,22.30
2019-03-28T01:37:32.926Z,20.23
2019-03-28T01:40:13.650Z,26.57
2019-03-28T01:42:54.247Z,19.73
2019-03-28T01:45:34.748Z,23.73
2019-03-28T01:48:15.157Z,22.20
2019-03-28T01:50:55.972Z,26.73
2019-03-28T01:53:36.776Z,23.10
2019-03-28T01:56:18.303Z,26.97
2019-03-28T01:58:59.391Z,26.30
2019-03-28T02:01:40.102Z,26.90
2019-03-28T02:04:20.602Z,28.20
2019-03-28T02:06:49.199Z,27.77
2019-03-28T02:09:37.116Z,26.07
2019-03-28T02:12:17.499Z,27.23
2019-03-28T02:14:46.041Z,33.07
2019-03-28T02:17:33.967Z,26.30
2019-03-28T02:20:21.893Z,26.47
2019-03-28T02:23:02.841Z,27.57
2019-03-28T02:25:43.511Z,25.97
2019-03-28T02:28:24.363Z,25.20
2019-03-28T02:31:05.014Z,25.67
2019-03-28T02:33:46.967Z,30.13
2019-03-28T02:36:27.312Z,30.23
2019-03-28T02:39:07.996Z,29.77
2019-03-28T02:41:48.906Z,30.30
2019-03-28T02:44:30.066Z,37.27
2019-03-28T02:47:10.650Z,38.60
2019-03-28T02:49:51.599Z,35.30
2019-03-28T02:52:33.604Z,34.37
2019-03-28T02:55:14.578Z,34.37
2019-03-28T02:57:55.309Z,37.90
2019-03-28T03:00:35.827Z,34.70
2019-03-28T03:03:16.478Z,39.07
2019-03-28T03:05:57.503Z,37.17
2019-03-28T03:08:38.224Z,37.23
2019-03-28T03:11:19.347Z,35.60
2019-03-28T03:14:00.481Z,37.50
2019-03-28T03:16:41.586Z,40.90
2019-03-28T03:19:22.815Z,38.37
2019-03-28T03:22:03.567Z,40.57
2019-03-28T03:24:44.974Z,39.23
2019-03-28T03:27:25.917Z,41.13
2019-03-28T03:30:06.888Z,41.73
2019-03-28T03:32:48.068Z,40.27
2019-03-28T03:35:28.933Z,37.50
2019-03-28T03:38:09.654Z,41.73
2019-03-28T03:40:50.469Z,38.23
2019-03-28T03:43:31.346Z,37.83
2019-03-28T03:46:13.318Z,42.03
2019-03-28T03:48:54.190Z,41.30
2019-03-28T03:51:34.844Z,44.83
2019-03-28T03:54:15.583Z,44.73
2019-03-28T03:56:56.642Z,45.93
2019-03-28T03:59:37.534Z,42.03
2019-03-28T04:02:18.125Z,37.60
2019-03-28T04:04:59.023Z,39.80
2019-03-28T04:07:39.831Z,43.37
2019-03-28T04:10:20.587Z,40.87
2019-03-28T04:13:01.736Z,37.77
2019-03-28T04:15:42.741Z,39.90
2019-03-28T04:18:23.669Z,44.97
2019-03-28T04:21:05.573Z,39.57
2019-03-28T04:23:46.290Z,41.53
2019-03-28T04:26:27.776Z,44.73
2019-03-28T04:29:06.656Z,44.90
2019-03-28T04:31:54.562Z,41.93
2019-03-28T04:34:35.177Z,40.77
2019-03-28T04:37:16.083Z,39.57
2019-03-28T04:39:44.654Z,44.87
2019-03-28T04:42:32.658Z,42.20
2019-03-28T04:45:01.232Z,42.07
2019-03-28T04:47:49.065Z,43.87
2019-03-28T04:50:30.088Z,43.60
2019-03-28T04:53:11.505Z,39.03
2019-03-28T04:55:51.908Z,36.93
2019-03-28T04:58:43.935Z,38.07
2019-03-28T05:01:15.739Z,40.00
2019-03-28T05:03:56.629Z,39.47
2019-03-28T05:06:38.147Z,41.23
2019-03-28T05:09:19.342Z,38.80
2019-03-28T05:12:00.237Z,36.97
2019-03-28T05:14:41.261Z,38.93
2019-03-28T05:17:09.836Z,35.67
2019-03-28T05:19:38.434Z,41.50
2019-03-28T05:22:26.341Z,42.23
2019-03-28T05:25:14.235Z,38.23
2019-03-28T05:27:55.485Z,40.30
2019-03-28T05:30:36.101Z,38.57
2019-03-28T05:33:17.296Z,43.53
2019-03-28T05:35:58.184Z,43.40
2019-03-28T05:38:39.048Z,39.60
2019-03-28T05:41:19.864Z,43.30
2019-03-28T05:44:00.561Z,48.30
2019-03-28T05:46:41.290Z,43.20
2019-03-28T05:49:21.735Z,39.07
2019-03-28T05:52:02.460Z,38.87
2019-03-28T05:54:42.899Z,38.10
2019-03-28T05:57:23.755Z,38.70
2019-03-28T06:00:05.086Z,36.77
2019-03-28T06:02:45.696Z,40.90
2019-03-28T06:05:26.426Z,35.37
2019-03-28T06:08:07.691Z,38.97
2019-03-28T06:10:48.538Z,35.93
2019-03-28T06:13:29.130Z,43.77
2019-03-28T06:16:10.016Z,35.60
2019-03-28T06:18:50.867Z,39.90
2019-03-28T06:21:31.441Z,37.17
2019-03-28T06:24:11.978Z,41.50
2019-03-28T06:26:53.009Z,38.70
2019-03-28T06:29:24.105Z,35.47
2019-03-28T06:32:11.143Z,37.17
2019-03-28T06:34:52.353Z,37.37
2019-03-28T06:37:33.473Z,39.43
2019-03-28T06:40:13.981Z,38.77
2019-03-28T06:42:54.480Z,39.10
2019-03-28T06:45:35.398Z,39.07
2019-03-28T06:48:16.142Z,42.43
2019-03-28T06:50:56.935Z,43.70
2019-03-28T06:53:38.315Z,41.70
2019-03-28T06:56:06.947Z,47.87
2019-03-28T06:58:54.860Z,47.77
2019-03-28T07:01:42.780Z,48.00
2019-03-28T07:04:23.541Z,44.33
2019-03-28T07:07:04.351Z,46.60
2019-03-28T07:09:45.094Z,39.73
2019-03-28T07:12:25.703Z,46.27
2019-03-28T07:15:06.403Z,42.93
2019-03-28T07:17:47.222Z,40.00
2019-03-28T07:20:28.230Z,39.00
2019-03-28T07:23:08.861Z,39.77
2019-03-28T07:25:49.935Z,38.77
2019-03-28T07:28:30.451Z,39.13
2019-03-28T07:31:11.252Z,41.53
2019-03-28T07:33:51.964Z,39.57
2019-03-28T07:36:32.496Z,41.13
2019-03-28T07:39:13.486Z,40.27
2019-03-28T07:41:54.627Z,39.30
2019-03-28T07:44:37.578Z,37.13
2019-03-28T07:47:18.463Z,33.70
2019-03-28T07:49:58.844Z,41.47
2019-03-28T07:52:39.337Z,37.83
2019-03-28T07:55:19.646Z,33.67
2019-03-28T07:58:00.466Z,41.93
2019-03-28T08:00:41.201Z,33.53
2019-03-28T08:03:22.060Z,30.43
2019-03-28T08:06:02.578Z,34.50
2019-03-28T08:08:44.250Z,29.93
2019-03-28T08:11:25.478Z,33.90
2019-03-28T08:14:06.283Z,35.83
2019-03-28T08:16:47.337Z,30.73
2019-03-28T08:19:28.069Z,31.77
2019-03-28T08:22:09.474Z,29.53
2019-03-28T08:24:38.058Z,29.93
2019-03-28T08:27:25.993Z,29.57
2019-03-28T08:33:16.176Z,26.23
2019-03-28T08:35:56.823Z,25.20
2019-03-28T08:38:37.712Z,17.60
2019-03-28T08:41:19.650Z,20.23
2019-03-28T08:44:00.622Z,19.30
2019-03-28T08:46:41.712Z,19.50
2019-03-28T08:49:22.485Z,12.97
2019-03-28T08:52:03.409Z,16.67
2019-03-28T08:54:44.138Z,16.03
2019-03-28T08:57:25.042Z,13.90
2019-03-28T09:00:06.157Z,11.30
2019-03-28T09:02:46.767Z,19.20
2019-03-28T09:05:27.743Z,12.23
2019-03-28T09:08:08.469Z,9.47
2019-03-28T09:10:49.147Z,10.60
2019-03-28T09:13:29.771Z,9.40
2019-03-28T09:16:10.759Z,12.77
2019-03-28T09:18:51.477Z,9.47
2019-03-28T09:21:31.851Z,7.13
2019-03-28T09:24:15.356Z,7.17
2019-03-28T09:26:56.325Z,9.17
2019-03-28T09:29:37.451Z,13.43
2019-03-28T09:32:18.218Z,9.60
2019-03-28T09:34:58.956Z,9.03
2019-03-28T09:37:39.755Z,10.27
2019-03-28T09:40:08.417Z,10.97
2019-03-28T09:42:56.394Z,12.70
2019-03-28T09:45:37.539Z,10.90
2019-03-28T09:48:17.883Z,8.80
2019-03-28T09:50:58.851Z,8.33
2019-03-28T09:53:40.130Z,6.60
2019-03-28T09:56:21.076Z,6.33
2019-03-28T09:59:01.833Z,7.37
2019-03-28T10:01:42.649Z,10.40
2019-03-28T10:04:23.514Z,9.63
2019-03-28T10:07:05.026Z,7.47
2019-03-28T10:09:46.354Z,6.83
2019-03-28T10:12:27.012Z,5.73
2019-03-28T10:15:07.529Z,5.93
2019-03-28T10:17:48.272Z,5.23
2019-03-28T10:20:29.137Z,5.87
2019-03-28T10:23:09.548Z,3.83
2019-03-28T10:25:50.275Z,5.53
2019-03-28T10:28:30.765Z,6.37
2019-03-28T10:31:16.575Z,6.73
2019-03-28T10:33:54.302Z,12.40
2019-03-28T10:36:35.159Z,6.20
2019-03-28T10:39:16.151Z,5.00
2019-03-28T10:41:57.191Z,8.07
2019-03-28T10:44:38.154Z,6.93
2019-03-28T10:47:18.781Z,7.63
2019-03-28T10:49:59.411Z,10.33
2019-03-28T10:52:39.978Z,10.27
2019-03-28T10:55:20.610Z,7.47
2019-03-28T10:58:01.744Z,7.13
2019-03-28T11:00:42.733Z,7.33
2019-03-28T11:03:23.574Z,8.23
2019-03-28T11:06:04.653Z,8.27
2019-03-28T11:08:45.105Z,10.87
2019-03-28T11:11:26.103Z,11.03
2019-03-28T11:14:06.890Z,13.10
2019-03-28T11:16:48.395Z,14.37
2019-03-28T11:19:29.302Z,11.47
2019-03-28T11:22:10.023Z,13.47
2019-03-28T11:24:50.810Z,10.80
2019-03-28T11:27:31.343Z,10.43
2019-03-28T11:30:12.293Z,10.30
2019-03-28T11:32:53.283Z,11.10
2019-03-28T11:35:34.068Z,10.63
2019-03-28T11:38:14.540Z,8.60
2019-03-28T11:40:55.419Z,10.33
2019-03-28T11:43:36.076Z,8.20
2019-03-28T11:46:16.799Z,7.30
2019-03-28T11:48:57.562Z,9.67
2019-03-28T11:51:38.433Z,9.83
2019-03-28T11:54:19.332Z,10.13
2019-03-28T11:57:00.228Z,11.27
2019-03-28T11:59:41.132Z,12.67
2019-03-28T12:02:25.117Z,10.27
2019-03-28T12:05:04.567Z,8.50
2019-03-28T12:07:45.169Z,27.23
2019-03-28T12:10:26.579Z,12.27
2019-03-28T12:13:07.630Z,13.30
2019-03-28T12:15:48.315Z,14.47
2019-03-28T12:18:28.914Z,14.03
2019-03-28T12:21:09.688Z,12.10
2019-03-28T12:23:50.600Z,14.87
2019-03-28T12:26:31.221Z,13.33
2019-03-28T12:29:11.921Z,13.37
2019-03-28T12:31:52.669Z,13.23
2019-03-28T12:34:33.441Z,14.63
2019-03-28T12:37:14.339Z,13.23
2019-03-28T12:39:55.152Z,14.47
2019-03-28T12:42:35.794Z,16.67
2019-03-28T12:45:16.397Z,14.43
2019-03-28T12:47:57.058Z,14.97
2019-03-28T12:50:37.324Z,16.20
2019-03-28T12:53:18.255Z,16.20
2019-03-28T12:55:58.958Z,14.13
2019-03-28T12:58:39.758Z,15.80
2019-03-28T13:01:20.522Z,16.57
2019-03-28T13:04:01.684Z,17.70
2019-03-28T13:06:42.475Z,17.33
2019-03-28T13:09:23.175Z,16.00
2019-03-28T13:12:03.907Z,17.30
2019-03-28T13:14:46.082Z,15.57
2019-03-28T13:17:26.944Z,15.77
2019-03-28T13:20:07.555Z,16.77
2019-03-28T13:22:48.280Z,15.10
2019-03-28T13:25:29.042Z,15.37
2019-03-28T13:28:09.722Z,14.30
2019-03-28T13:30:50.597Z,15.73
2019-03-28T13:33:31.720Z,15.97
2019-03-28T13:36:12.571Z,18.73
2019-03-28T13:38:53.241Z,13.53
2019-03-28T13:41:34.157Z,18.43
2019-03-28T13:44:14.980Z,14.07
2019-03-28T13:46:55.822Z,15.30
2019-03-28T13:49:36.392Z,17.40
2019-03-28T13:52:17.165Z,15.63
2019-03-28T13:54:45.645Z,19.27
2019-03-28T13:57:43.238Z,17.90
2019-03-28T14:00:22.989Z,18.80
2019-03-28T14:03:03.909Z,18.03
2019-03-28T14:05:44.353Z,19.47
2019-03-28T14:08:27.202Z,20.27
2019-03-28T14:11:07.674Z,18.30
2019-03-28T14:13:48.422Z,20.13
2019-03-28T14:16:29.130Z,23.13
2019-03-28T14:19:09.898Z,20.90
2019-03-28T14:21:50.211Z,21.00
2019-03-28T14:24:31.134Z,22.97
2019-03-28T14:27:11.817Z,20.40
2019-03-28T14:29:52.554Z,21.20
2019-03-28T14:32:33.867Z,20.57
2019-03-28T14:35:02.490Z,22.17
2019-03-28T14:37:43.284Z,22.03
2019-03-28T14:40:24.093Z,22.33
2019-03-28T14:43:05.019Z,22.83
2019-03-28T14:45:46.121Z,22.80
2019-03-28T14:48:26.684Z,22.13
2019-03-28T14:51:07.679Z,23.30
2019-03-28T14:53:48.427Z,24.53
2019-03-28T14:56:29.379Z,21.87
2019-03-28T14:59:10.300Z,22.73
2019-03-28T15:01:51.270Z,25.47
2019-03-28T15:04:32.431Z,23.67
2019-03-28T15:07:13.238Z,23.50
2019-03-28T15:09:54.297Z,27.03
2019-03-28T15:12:35.243Z,25.43
2019-03-28T15:15:16.771Z,26.80
2019-03-28T15:17:57.843Z,24.23
2019-03-28T15:20:38.783Z,23.80
2019-03-28T15:23:19.461Z,31.13
2019-03-28T15:26:00.339Z,23.10
2019-03-28T15:28:41.013Z,27.73
2019-03-28T15:31:21.863Z,24.47
2019-03-28T15:34:02.540Z,23.60
2019-03-28T15:36:43.226Z,24.77
2019-03-28T15:39:24.130Z,26.07
2019-03-28T15:42:04.664Z,26.00
2019-03-28T15:44:45.321Z,24.70
2019-03-28T15:47:25.981Z,31.37
2019-03-28T15:50:06.958Z,27.03
2019-03-28T15:52:47.803Z,24.57
2019-03-28T15:55:28.778Z,24.00
2019-03-28T15:58:22.102Z,24.10
2019-03-28T16:00:51.532Z,25.77
2019-03-28T16:03:32.423Z,26.80
2019-03-28T16:06:13.478Z,25.60
2019-03-28T16:08:54.513Z,23.27
2019-03-28T16:11:35.500Z,26.93
2019-03-28T16:14:16.540Z,23.70
2019-03-28T16:16:57.487Z,24.07
2019-03-28T16:19:38.338Z,23.63
2019-03-28T16:22:18.796Z,24.03
2019-03-28T16:24:59.848Z,25.70
2019-03-28T16:27:40.451Z,26.43
2019-03-28T16:30:21.362Z,25.10
2019-03-28T16:33:01.944Z,23.07
2019-03-28T16:35:42.510Z,25.40
2019-03-28T16:38:23.264Z,25.13
2019-03-28T16:41:04.358Z,28.47
2019-03-28T16:43:45.272Z,30.13
2019-03-28T16:46:26.177Z,25.97
2019-03-28T16:49:06.939Z,24.90
2019-03-28T16:51:48.797Z,23.90
2019-03-28T16:54:29.460Z,25.17
2019-03-28T16:57:10.214Z,25.83
2019-03-28T16:59:51.173Z,24.13
2019-03-28T17:02:31.945Z,29.03
2019-03-28T17:05:12.681Z,24.17
2019-03-28T17:07:53.565Z,25.83
2019-03-28T17:10:34.495Z,26.73
2019-03-28T17:16:27.585Z,23.30
2019-03-28T17:19:08.653Z,26.07
2019-03-28T17:21:49.443Z,24.57
2019-03-28T17:24:30.407Z,25.10
2019-03-28T17:27:11.543Z,23.40
2019-03-28T17:29:52.112Z,28.57
2019-03-28T17:32:32.668Z,27.67
2019-03-28T17:35:13.356Z,27.00
2019-03-28T17:37:53.977Z,24.43
2019-03-28T17:40:36.694Z,27.03
2019-03-28T17:43:17.398Z,26.77
2019-03-28T17:45:57.972Z,24.37
2019-03-28T17:48:39.005Z,30.57
2019-03-28T17:51:19.509Z,27.03
2019-03-28T17:54:00.152Z,25.63
2019-03-28T17:56:41.136Z,29.83
2019-03-28T17:59:21.971Z,25.73
2019-03-28T18:02:02.417Z,27.63
2019-03-28T18:04:48.086Z,25.53
2019-03-28T18:07:26.225Z,27.83
2019-03-28T18:10:07.029Z,29.93
2019-03-28T18:12:35.508Z,25.27
2019-03-28T18:15:23.303Z,26.03
2019-03-28T18:18:04.138Z,26.80
2019-03-28T18:20:44.629Z,26.40
2019-03-28T18:23:25.249Z,29.13
2019-03-28T18:26:05.882Z,28.33
2019-03-28T18:28:46.724Z,28.43
2019-03-28T18:31:27.712Z,26.23
2019-03-28T18:34:12.069Z,27.80
2019-03-28T18:36:52.621Z,25.23
2019-03-28T18:39:33.146Z,27.13
2019-03-28T18:42:13.927Z,26.73
2019-03-28T18:44:54.896Z,28.30
2019-03-28T18:47:35.293Z,28.47
2019-03-28T18:50:15.969Z,26.17
2019-03-28T18:52:56.442Z,25.43
2019-03-28T18:55:37.168Z,24.77
2019-03-28T18:58:17.483Z,29.57
2019-03-28T19:00:58.249Z,25.30
2019-03-28T19:03:38.720Z,24.10
2019-03-28T19:06:19.708Z,32.00
2019-03-28T19:09:00.509Z,30.23
2019-03-28T19:11:41.472Z,28.43
2019-03-28T19:14:21.902Z,25.13
2019-03-28T19:17:02.709Z,24.70
2019-03-28T19:19:43.792Z,26.23
2019-03-28T19:22:24.541Z,29.77
2019-03-28T19:25:05.417Z,30.10
2019-03-28T19:27:46.153Z,26.07
2019-03-28T19:30:26.434Z,24.57
2019-03-28T19:33:07.423Z,28.33
2019-03-28T19:35:47.833Z,25.87
2019-03-28T19:38:28.887Z,26.20
2019-03-28T19:41:09.399Z,27.23
2019-03-28T19:43:50.106Z,26.80
2019-03-28T19:46:37.859Z,25.80
2019-03-28T19:49:18.207Z,30.07
2019-03-28T19:51:59.886Z,27.77
2019-03-28T19:54:40.419Z,26.57
2019-03-28T19:57:21.378Z,24.97
2019-03-28T20:00:01.757Z,29.20
2019-03-28T20:02:42.251Z,29.00
2019-03-28T20:05:23.191Z,30.20
2019-03-28T20:08:15.005Z,31.57
2019-03-28T20:10:46.802Z,31.00
2019-03-28T20:13:30.702Z,26.57
2019-03-28T20:16:10.023Z,29.47
2019-03-28T20:18:50.984Z,27.20
2019-03-28T20:21:31.555Z,28.93
2019-03-28T20:24:12.153Z,30.10
2019-03-28T20:29:35.351Z,26.53
2019-03-28T20:32:15.791Z,28.87
2019-03-28T20:34:56.619Z,28.67
2019-03-28T20:37:37.949Z,27.27
2019-03-28T20:40:19.684Z,32.40
2019-03-28T20:43:00.796Z,28.57
2019-03-28T20:45:41.901Z,31.53
2019-03-28T20:48:22.431Z,31.97
2019-03-28T20:51:03.551Z,32.37
2019-03-28T20:53:44.726Z,30.73
2019-03-28T20:56:25.394Z,36.77
2019-03-28T20:59:06.327Z,34.60
2019-03-28T21:01:47.305Z,32.83
2019-03-28T21:04:31.681Z,32.00
2019-03-28T21:07:10.944Z,37.33
2019-03-28T21:09:51.579Z,30.57
2019-03-28T21:12:32.139Z,33.70
2019-03-28T21:15:12.657Z,30.40
2019-03-28T21:17:53.024Z,36.60
2019-03-28T21:20:33.615Z,29.93
2019-03-28T21:23:14.241Z,32.20
2019-03-28T21:25:54.873Z,31.33
2019-03-28T21:28:46.496Z,31.03
2019-03-28T21:31:18.004Z,27.63
2019-03-28T21:33:58.744Z,34.40
2019-03-28T21:36:39.655Z,31.53
2019-03-28T21:39:20.504Z,33.87
2019-03-28T21:42:01.296Z,28.43
2019-03-28T21:44:42.063Z,34.67
2019-03-28T21:47:23.071Z,35.93
2019-03-28T21:50:03.808Z,34.40
2019-03-28T21:52:44.632Z,31.63
2019-03-28T21:55:25.478Z,34.13
2019-03-28T21:58:06.003Z,33.40
2019-03-28T22:00:46.412Z,35.33
2019-03-28T22:03:27.273Z,36.40
2019-03-28T22:06:07.616Z,32.27
2019-03-28T22:08:48.126Z,35.87
2019-03-28T22:11:28.718Z,34.70
2019-03-28T22:14:09.328Z,33.67
2019-03-28T22:16:49.997Z,32.63
2019-03-28T22:19:30.700Z,31.53
2019-03-28T22:22:10.933Z,35.07
2019-03-28T22:24:54.599Z,34.03
2019-03-28T22:27:32.922Z,30.50
2019-03-28T22:30:20.857Z,32.20
2019-03-28T22:33:01.949Z,33.80
2019-03-28T22:35:43.022Z,37.40
2019-03-28T22:38:23.340Z,34.17
2019-03-28T22:41:04.019Z,35.17
2019-03-28T22:43:44.846Z,33.23
2019-03-28T22:46:25.724Z,37.07
2019-03-28T22:52:18.724Z,33.73
2019-03-28T22:54:47.496Z,33.50
2019-03-28T22:57:35.400Z,32.50
2019-03-28T23:00:18.830Z,32.27
2019-03-28T23:02:59.394Z,33.80
2019-03-28T23:05:40.067Z,31.43
2019-03-28T23:14:18.829Z,34.60
2019-03-28T23:16:59.403Z,34.30
2019-03-28T23:19:40.262Z,39.87
2019-03-28T23:22:21.221Z,34.90
2019-03-28T23:25:01.498Z,33.30
2019-03-28T23:27:42.561Z,32.93
2019-03-28T23:30:22.998Z,35.47
2019-03-28T23:33:04.936Z,29.37
2019-03-28T23:35:45.585Z,28.23
2019-03-28T23:38:26.289Z,15.90
2019-03-28T23:41:07.055Z,11.63
2019-03-28T23:43:48.041Z,15.13
2019-03-28T23:46:29.252Z,15.43
2019-03-28T23:49:10.449Z,16.97
2019-03-28T23:51:51.391Z,14.10
2019-03-28T23:54:31.974Z,11.90
2019-03-28T23:57:12.559Z,13.37
2019-03-28T23:59:53.256Z,16.20
